createdAt,value
2023-02-02T00:01:09.708Z,97985.19
2023-02-02T00:03:37.616Z,97963.50
2023-02-02T00:06:04.391Z,97969.34
2023-02-02T00:08:30.947Z,97976.56
2023-02-02T00:10:57.468Z,97986.00
2023-02-02T00:13:23.941Z,97950.09
2023-02-02T00:15:50.464Z,97967.94
2023-02-02T00:18:17.006Z,97955.75
2023-02-02T00:20:44.753Z,97960.69
2023-02-02T00:23:11.220Z,97971.28
2023-02-02T00:25:37.743Z,97979.66
2023-02-02T00:28:04.992Z,97965.69
2023-02-02T00:30:31.569Z,97949.22
2023-02-02T00:32:58.109Z,97960.50
2023-02-02T00:35:24.916Z,97964.94
2023-02-02T00:37:52.083Z,97971.00
2023-02-02T00:40:18.659Z,97978.09
2023-02-02T00:42:49.090Z,97972.72
2023-02-02T00:45:15.815Z,97983.50
2023-02-02T00:47:46.807Z,97978.94
2023-02-02T00:50:20.636Z,97972.38
2023-02-02T00:52:47.771Z,97988.84
2023-02-02T00:55:14.489Z,97977.59
2023-02-02T00:57:41.273Z,97955.47
2023-02-02T01:00:08.777Z,97978.22
2023-02-02T01:02:35.723Z,97979.03
2023-02-02T01:05:02.413Z,98002.56
2023-02-02T01:07:28.932Z,97976.19
2023-02-02T01:09:55.443Z,97985.53
2023-02-02T01:12:21.933Z,97987.47
2023-02-02T01:14:48.729Z,97985.97
2023-02-02T01:17:15.291Z,97976.78
2023-02-02T01:19:41.957Z,97991.78
2023-02-02T01:22:08.749Z,97985.84
2023-02-02T01:24:35.235Z,97986.56
2023-02-02T01:27:01.734Z,97983.94
2023-02-02T01:29:28.247Z,98000.59
2023-02-02T01:31:54.776Z,98006.94
2023-02-02T01:34:21.296Z,98000.66
2023-02-02T01:36:48.061Z,98002.41
2023-02-02T01:39:14.529Z,97995.38
2023-02-02T01:41:41.421Z,98005.53
2023-02-02T01:44:46.535Z,97997.59
2023-02-02T01:47:13.032Z,98002.00
2023-02-02T01:49:39.619Z,98013.28
2023-02-02T01:52:06.536Z,97996.78
2023-02-02T01:54:53.202Z,98001.69
2023-02-02T01:57:33.719Z,98009.22
2023-02-02T02:00:01.765Z,98014.03
2023-02-02T02:02:28.345Z,98014.38
2023-02-02T02:04:54.803Z,98005.84
2023-02-02T02:07:21.782Z,98011.03
2023-02-02T02:09:48.628Z,98003.84
2023-02-02T02:12:15.624Z,97994.53
2023-02-02T02:15:02.062Z,98012.31
2023-02-02T02:17:56.296Z,98009.19
2023-02-02T02:21:09.353Z,98022.66
2023-02-02T02:24:24.026Z,98023.25
2023-02-02T02:27:19.483Z,98017.81
2023-02-02T02:30:24.275Z,98043.81
2023-02-02T02:32:52.773Z,98042.81
2023-02-02T02:35:35.491Z,98018.09
2023-02-02T02:38:11.098Z,98066.66
2023-02-02T02:40:42.889Z,98093.47
2023-02-02T02:43:13.066Z,98085.09
2023-02-02T02:45:39.633Z,98076.41
2023-02-02T02:48:06.346Z,98078.50
2023-02-02T02:50:32.897Z,98095.78
2023-02-02T02:53:33.906Z,98112.38
2023-02-02T02:56:19.587Z,98127.44
2023-02-02T02:58:55.052Z,98112.00
2023-02-02T03:01:25.520Z,98115.47
2023-02-02T03:04:08.630Z,98096.78
2023-02-02T03:06:41.352Z,98100.97
2023-02-02T03:09:19.819Z,98104.75
2023-02-02T03:11:46.276Z,98120.69
2023-02-02T03:14:12.805Z,98106.88
2023-02-02T03:16:39.352Z,98120.09
2023-02-02T03:19:06.135Z,98079.50
2023-02-02T03:21:33.099Z,98115.66
2023-02-02T03:23:59.781Z,98122.38
2023-02-02T03:26:26.263Z,98140.41
2023-02-02T03:28:52.992Z,98136.63
2023-02-02T03:31:19.660Z,98128.88
2023-02-02T03:33:46.136Z,98135.41
2023-02-02T03:36:12.605Z,98128.69
2023-02-02T03:38:39.111Z,98147.34
2023-02-02T03:41:06.389Z,98149.84
2023-02-02T03:43:32.846Z,98145.44
2023-02-02T03:46:00.958Z,98156.03
2023-02-02T03:48:27.553Z,98159.88
2023-02-02T03:50:54.151Z,98163.06
2023-02-02T03:53:20.778Z,98169.22
2023-02-02T03:55:47.268Z,98167.88
2023-02-02T03:58:13.778Z,98172.44
2023-02-02T04:00:40.357Z,98175.38
2023-02-02T04:03:06.883Z,98178.13
2023-02-02T04:05:33.385Z,98185.66
2023-02-02T04:07:59.958Z,98174.34
2023-02-02T04:10:26.499Z,98172.78
2023-02-02T04:12:53.079Z,98171.19
2023-02-02T04:15:19.604Z,98187.09
2023-02-02T04:17:46.091Z,98174.75
2023-02-02T04:20:12.571Z,98172.03
2023-02-02T04:22:39.057Z,98175.00
2023-02-02T04:25:05.832Z,98178.44
2023-02-02T04:27:33.950Z,98184.41
2023-02-02T04:30:00.467Z,98187.25
2023-02-02T04:32:26.964Z,98181.03
2023-02-02T04:34:53.471Z,98156.19
2023-02-02T04:37:19.985Z,98183.16
2023-02-02T04:39:46.485Z,98172.88
2023-02-02T04:42:12.981Z,98181.03
2023-02-02T04:44:39.896Z,98160.44
2023-02-02T04:47:06.359Z,98176.66
2023-02-02T04:49:32.855Z,98175.66
2023-02-02T04:51:59.484Z,98178.66
2023-02-02T04:54:26.124Z,98161.84
2023-02-02T04:56:52.621Z,98159.69
2023-02-02T04:59:19.113Z,98169.13
2023-02-02T05:01:45.624Z,98172.25
2023-02-02T05:04:12.352Z,98176.44
2023-02-02T05:06:38.876Z,98188.00
2023-02-02T05:09:05.352Z,98189.88
2023-02-02T05:11:31.923Z,98198.03
2023-02-02T05:13:58.407Z,98190.72
2023-02-02T05:16:27.025Z,98203.16
2023-02-02T05:18:56.632Z,98201.66
2023-02-02T05:21:23.425Z,98211.09
2023-02-02T05:23:49.926Z,98221.50
2023-02-02T05:26:23.506Z,98215.88
2023-02-02T05:28:50.059Z,98218.84
2023-02-02T05:31:16.585Z,98213.16
2023-02-02T05:33:43.171Z,98219.72
2023-02-02T05:36:09.732Z,98220.88
2023-02-02T05:38:37.450Z,98222.81
2023-02-02T05:41:04.139Z,98214.19
2023-02-02T05:43:31.293Z,98234.28
2023-02-02T05:45:57.856Z,98238.09
2023-02-02T05:48:24.497Z,98234.63
2023-02-02T05:51:07.184Z,98243.22
2023-02-02T05:53:33.664Z,98238.66
2023-02-02T05:56:00.187Z,98245.16
2023-02-02T05:58:26.673Z,98251.34
2023-02-02T06:00:55.011Z,98247.22
2023-02-02T06:03:23.020Z,98249.31
2023-02-02T06:05:49.597Z,98245.94
2023-02-02T06:08:16.410Z,98244.28
2023-02-02T06:10:42.965Z,98237.72
2023-02-02T06:13:09.455Z,98250.94
2023-02-02T06:15:36.405Z,98248.03
2023-02-02T06:18:03.055Z,98256.91
2023-02-02T06:20:29.688Z,98251.59
2023-02-02T06:22:56.223Z,98240.72
2023-02-02T06:25:23.143Z,98248.75
2023-02-02T06:27:50.217Z,98243.72
2023-02-02T06:30:16.802Z,98243.81
2023-02-02T06:32:43.362Z,98243.72
2023-02-02T06:35:09.935Z,98242.25
2023-02-02T06:37:38.997Z,98246.13
2023-02-02T06:40:07.226Z,98244.91
2023-02-02T06:42:34.163Z,98256.22
2023-02-02T06:45:00.670Z,98251.88
2023-02-02T06:47:27.362Z,98254.13
2023-02-02T06:49:53.872Z,98260.47
2023-02-02T06:52:20.503Z,98256.53
2023-02-02T06:54:46.965Z,98256.72
2023-02-02T06:57:13.446Z,98266.00
2023-02-02T06:59:41.628Z,98260.47
2023-02-02T07:02:11.527Z,98265.50
2023-02-02T07:04:38.013Z,98256.94
2023-02-02T07:07:04.676Z,98264.88
2023-02-02T07:09:34.369Z,98266.31
2023-02-02T07:12:00.866Z,98268.69
2023-02-02T07:14:27.503Z,98266.56
2023-02-02T07:16:53.990Z,98273.28
2023-02-02T07:19:20.562Z,98269.94
2023-02-02T07:21:47.047Z,98268.88
2023-02-02T07:24:13.569Z,98271.66
2023-02-02T07:26:40.139Z,98286.56
2023-02-02T07:29:06.813Z,98279.53
2023-02-02T07:31:36.071Z,98276.50
2023-02-02T07:34:03.188Z,98273.16
2023-02-02T07:36:29.994Z,98273.16
2023-02-02T07:38:59.645Z,98276.50
2023-02-02T07:41:27.826Z,98274.00
2023-02-02T07:43:54.381Z,98275.78
2023-02-02T07:46:20.965Z,98277.22
2023-02-02T07:48:47.489Z,98270.84
2023-02-02T07:51:16.452Z,98276.09
2023-02-02T07:53:44.934Z,98287.16
2023-02-02T07:56:15.374Z,98282.47
2023-02-02T07:58:42.046Z,98291.81
2023-02-02T08:01:09.531Z,98293.31
2023-02-02T08:03:36.264Z,98296.97
2023-02-02T08:06:32.220Z,98289.97
2023-02-02T08:08:59.287Z,98296.53
2023-02-02T08:11:26.157Z,98289.56
2023-02-02T08:13:54.145Z,98281.97
2023-02-02T08:16:22.061Z,98290.03
2023-02-02T08:18:48.686Z,98302.53
2023-02-02T08:21:16.133Z,98298.94
2023-02-02T08:23:42.718Z,98301.91
2023-02-02T08:26:16.445Z,98294.38
2023-02-02T08:28:43.740Z,98302.84
2023-02-02T08:31:17.233Z,98300.63
2023-02-02T08:33:43.805Z,98314.47
2023-02-02T08:36:14.185Z,98309.69
2023-02-02T08:38:41.498Z,98316.91
2023-02-02T08:41:08.937Z,98321.25
2023-02-02T08:43:35.451Z,98320.59
2023-02-02T08:46:05.522Z,98317.44
2023-02-02T08:48:32.520Z,98319.13
2023-02-02T08:50:59.614Z,98318.94
2023-02-02T08:53:26.424Z,98318.72
2023-02-02T08:56:15.432Z,98317.63
2023-02-02T08:58:46.160Z,98324.75
2023-02-02T09:01:17.484Z,98319.63
2023-02-02T09:03:44.173Z,98319.91
2023-02-02T09:06:12.424Z,98323.28
2023-02-02T09:08:39.151Z,98318.44
2023-02-02T09:11:10.744Z,98324.13
2023-02-02T09:13:37.803Z,98322.44
2023-02-02T09:16:05.494Z,98308.09
2023-02-02T09:18:32.096Z,98332.72
2023-02-02T09:21:03.045Z,98322.28
2023-02-02T09:23:31.113Z,98328.66
2023-02-02T09:25:57.738Z,98326.03
2023-02-02T09:28:24.599Z,98336.16
2023-02-02T09:30:51.451Z,98335.78
2023-02-02T09:33:17.975Z,98338.59
2023-02-02T09:35:44.492Z,98338.97
2023-02-02T09:38:10.976Z,98333.91
2023-02-02T09:40:37.528Z,98333.56
2023-02-02T09:43:28.011Z,98334.84
2023-02-02T09:46:12.792Z,98335.78
2023-02-02T09:49:08.220Z,98341.75
2023-02-02T09:51:37.810Z,98347.81
2023-02-02T09:54:26.975Z,98353.13
2023-02-02T09:56:55.828Z,98348.16
2023-02-02T09:59:34.204Z,98343.78
2023-02-02T10:02:19.162Z,98348.72
2023-02-02T10:04:49.063Z,98344.94
2023-02-02T10:07:18.734Z,98351.59
2023-02-02T10:09:58.218Z,98356.28
2023-02-02T10:12:40.876Z,98354.97
2023-02-02T10:15:23.127Z,98354.16
2023-02-02T10:17:51.334Z,98352.03
2023-02-02T10:20:21.046Z,98345.72
2023-02-02T10:22:47.560Z,98338.59
2023-02-02T10:25:14.718Z,98347.41
2023-02-02T10:27:41.289Z,98341.97
2023-02-02T10:30:15.865Z,98347.88
2023-02-02T10:32:47.731Z,98343.84
2023-02-02T10:35:48.179Z,98340.50
2023-02-02T10:38:37.698Z,98338.59
2023-02-02T10:41:29.181Z,98342.28
2023-02-02T10:44:01.691Z,98336.06
2023-02-02T10:46:32.312Z,98325.75
2023-02-02T10:49:39.519Z,98333.34
2023-02-02T10:52:11.999Z,98336.59
2023-02-02T10:54:58.356Z,98337.91
2023-02-02T10:57:39.608Z,98337.31
2023-02-02T11:00:32.199Z,98334.94
2023-02-02T11:03:00.317Z,98325.34
2023-02-02T11:05:47.152Z,98333.41
2023-02-02T11:08:21.318Z,98329.66
2023-02-02T11:10:49.880Z,98330.91
2023-02-02T11:13:22.893Z,98328.06
2023-02-02T11:15:49.436Z,98323.91
2023-02-02T11:18:29.821Z,98318.09
2023-02-02T11:20:56.556Z,98320.03
2023-02-02T11:23:23.075Z,98317.19
2023-02-02T11:26:00.350Z,98324.25
2023-02-02T11:28:30.233Z,98315.88
2023-02-02T11:30:56.800Z,98322.44
2023-02-02T11:33:34.671Z,98308.16
2023-02-02T11:36:02.905Z,98308.69
2023-02-02T11:38:29.640Z,98308.88
2023-02-02T11:41:04.295Z,98318.75
2023-02-02T11:43:41.914Z,98308.63
2023-02-02T11:46:17.330Z,98315.34
2023-02-02T11:48:50.513Z,98301.84
2023-02-02T11:51:24.574Z,98310.59
2023-02-02T11:53:59.193Z,98316.41
2023-02-02T11:56:26.285Z,98316.66
2023-02-02T11:58:58.965Z,98314.34
2023-02-02T12:01:35.599Z,98309.09
2023-02-02T12:04:23.630Z,98311.63
2023-02-02T12:06:50.288Z,98306.06
2023-02-02T12:09:22.199Z,98292.97
2023-02-02T12:12:11.540Z,98299.25
2023-02-02T12:14:53.006Z,98306.16
2023-02-02T12:17:32.994Z,98307.84
2023-02-02T12:20:02.612Z,98301.34
2023-02-02T12:23:07.681Z,98293.81
2023-02-02T12:25:54.438Z,98297.72
2023-02-02T12:28:31.207Z,98302.22
2023-02-02T12:31:10.192Z,98308.31
2023-02-02T12:33:46.998Z,98297.41
2023-02-02T12:36:27.819Z,98297.28
2023-02-02T12:39:09.849Z,98301.50
2023-02-02T12:41:54.273Z,98289.53
2023-02-02T12:44:31.425Z,98295.31
2023-02-02T12:47:39.892Z,98300.31
2023-02-02T12:50:12.257Z,98305.16
2023-02-02T12:52:48.073Z,98308.31
2023-02-02T12:55:17.751Z,98297.72
2023-02-02T12:58:13.569Z,98300.22
2023-02-02T13:00:43.445Z,98297.19
2023-02-02T13:03:31.320Z,98304.34
2023-02-02T13:06:16.443Z,98304.25
2023-02-02T13:08:48.060Z,98310.94
2023-02-02T13:11:33.077Z,98313.13
2023-02-02T13:14:11.727Z,98308.13
2023-02-02T13:16:41.014Z,98308.88
2023-02-02T13:19:08.415Z,98306.66
2023-02-02T13:21:34.978Z,98318.84
2023-02-02T13:24:05.022Z,98297.94
2023-02-02T13:26:38.487Z,98299.50
2023-02-02T13:29:11.035Z,98314.13
2023-02-02T13:31:52.197Z,98317.34
2023-02-02T13:34:31.886Z,98319.88
2023-02-02T13:37:06.817Z,98304.97
2023-02-02T13:39:34.785Z,98314.44
2023-02-02T13:42:02.824Z,98315.47
2023-02-02T13:44:32.665Z,98325.16
2023-02-02T13:47:09.179Z,98320.72
2023-02-02T13:49:42.860Z,98337.06
2023-02-02T13:52:12.394Z,98339.91
2023-02-02T13:54:53.037Z,98347.56
2023-02-02T13:57:28.805Z,98347.66
2023-02-02T14:00:12.052Z,98351.72
2023-02-02T14:02:44.335Z,98348.19
2023-02-02T14:05:27.381Z,98365.84
2023-02-02T14:08:06.793Z,98363.09
2023-02-02T14:10:36.031Z,98363.09
2023-02-02T14:13:32.544Z,98361.44
2023-02-02T14:16:00.707Z,98365.81
2023-02-02T14:18:49.576Z,98380.53
2023-02-02T14:21:34.049Z,98382.97
2023-02-02T14:24:12.824Z,98382.97
2023-02-02T14:26:45.621Z,98392.72
2023-02-02T14:29:34.797Z,98394.63
2023-02-02T14:32:24.186Z,98411.63
2023-02-02T14:34:54.104Z,98401.94
2023-02-02T14:37:23.505Z,98425.00
2023-02-02T14:40:06.644Z,98425.53
2023-02-02T14:42:54.799Z,98428.69
2023-02-02T14:45:27.796Z,98439.47
2023-02-02T14:48:06.871Z,98440.69
2023-02-02T14:50:39.300Z,98453.72
2023-02-02T14:53:43.199Z,98456.41
2023-02-02T14:56:10.772Z,98464.59
2023-02-02T14:58:49.922Z,98465.19
2023-02-02T15:01:25.005Z,98468.09
2023-02-02T15:03:56.080Z,98472.50
2023-02-02T15:06:22.529Z,98474.19
2023-02-02T15:09:19.837Z,98483.66
2023-02-02T15:12:04.513Z,98492.00
2023-02-02T15:14:44.889Z,98479.38
2023-02-02T15:17:34.474Z,98496.75
2023-02-02T15:20:05.738Z,98504.91
2023-02-02T15:22:47.825Z,98498.34
2023-02-02T15:25:36.298Z,98495.53
2023-02-02T15:28:14.074Z,98509.13
2023-02-02T15:30:42.648Z,98507.06
2023-02-02T15:33:26.803Z,98517.81
2023-02-02T15:35:53.649Z,98514.81
2023-02-02T15:38:20.448Z,98515.97
2023-02-02T15:40:47.094Z,98526.63
2023-02-02T15:43:14.018Z,98521.66
2023-02-02T15:45:47.868Z,98512.78
2023-02-02T15:48:25.387Z,98538.44
2023-02-02T15:50:55.917Z,98538.44
2023-02-02T15:53:45.698Z,98552.66
2023-02-02T15:56:29.409Z,98551.88
2023-02-02T15:58:58.458Z,98554.78
2023-02-02T16:01:25.668Z,98559.38
2023-02-02T16:04:26.633Z,98570.06
2023-02-02T16:06:53.375Z,98572.28
2023-02-02T16:09:25.920Z,98575.47
2023-02-02T16:11:52.583Z,98572.66
2023-02-02T16:14:19.067Z,98583.63
2023-02-02T16:16:47.563Z,98588.75
2023-02-02T16:19:20.704Z,98587.28
2023-02-02T16:21:47.121Z,98597.03
2023-02-02T16:24:21.789Z,98608.03
2023-02-02T16:26:48.489Z,98612.91
2023-02-02T16:29:17.351Z,98619.47
2023-02-02T16:31:47.325Z,98617.00
2023-02-02T16:34:18.431Z,98628.34
2023-02-02T16:36:44.922Z,98639.50
2023-02-02T16:39:16.539Z,98648.94
2023-02-02T16:41:44.867Z,98653.31
2023-02-02T16:44:30.958Z,98647.25
2023-02-02T16:46:57.634Z,98664.16
2023-02-02T16:49:26.170Z,98668.63
2023-02-02T16:52:19.960Z,98675.84
2023-02-02T16:54:55.845Z,98677.63
2023-02-02T16:57:33.115Z,98682.69
2023-02-02T17:00:01.622Z,98669.22
2023-02-02T17:02:39.046Z,98696.47
2023-02-02T17:05:16.296Z,98700.53
2023-02-02T17:07:49.988Z,98702.91
2023-02-02T17:10:16.401Z,98705.28
2023-02-02T17:12:43.342Z,98714.69
2023-02-02T17:15:18.895Z,98722.91
2023-02-02T17:17:48.715Z,98722.06
2023-02-02T17:20:16.062Z,98722.56
2023-02-02T17:22:45.380Z,98723.50
2023-02-02T17:25:21.905Z,98732.97
2023-02-02T17:27:48.469Z,98739.91
2023-02-02T17:30:18.510Z,98739.06
2023-02-02T17:32:44.987Z,98744.09
2023-02-02T17:35:25.972Z,98741.50
2023-02-02T17:37:53.528Z,98749.44
2023-02-02T17:40:21.497Z,98751.56
2023-02-02T17:42:51.809Z,98763.38
2023-02-02T17:45:28.301Z,98764.91
2023-02-02T17:47:54.928Z,98772.00
2023-02-02T17:50:24.568Z,98781.00
2023-02-02T17:52:51.315Z,98777.25
2023-02-02T17:55:32.365Z,98762.03
2023-02-02T17:57:58.876Z,98790.09
2023-02-02T18:00:26.719Z,98786.06
2023-02-02T18:02:57.236Z,98787.09
2023-02-02T18:05:24.196Z,98794.34
2023-02-02T18:07:50.869Z,98797.38
2023-02-02T18:10:19.334Z,98803.72
2023-02-02T18:12:45.859Z,98809.13
2023-02-02T18:15:13.122Z,98810.06
2023-02-02T18:17:39.852Z,98804.16
2023-02-02T18:20:06.802Z,98811.50
2023-02-02T18:22:33.343Z,98816.56
2023-02-02T18:25:00.059Z,98809.88
2023-02-02T18:27:29.182Z,98825.59
2023-02-02T18:29:55.899Z,98829.16
2023-02-02T18:32:22.415Z,98836.25
2023-02-02T18:34:51.332Z,98830.25
2023-02-02T18:37:18.196Z,98832.88
2023-02-02T18:39:45.346Z,98833.41
2023-02-02T18:42:11.929Z,98837.16
2023-02-02T18:44:38.620Z,98829.31
2023-02-02T18:47:06.132Z,98831.69
2023-02-02T18:49:32.643Z,98834.56
2023-02-02T18:51:59.109Z,98823.56
2023-02-02T18:54:25.777Z,98832.38
2023-02-02T18:56:52.264Z,98836.66
2023-02-02T18:59:18.789Z,98832.97
2023-02-02T19:01:45.386Z,98815.81
2023-02-02T19:04:11.984Z,98845.56
2023-02-02T19:06:56.868Z,98843.53
2023-02-02T19:09:24.734Z,98824.25
2023-02-02T19:11:51.619Z,98843.94
2023-02-02T19:14:26.597Z,98848.09
2023-02-02T19:16:59.348Z,98842.41
2023-02-02T19:19:33.434Z,98843.53
2023-02-02T19:22:01.534Z,98846.56
2023-02-02T19:24:33.259Z,98833.22
2023-02-02T19:26:59.753Z,98843.69
2023-02-02T19:29:28.759Z,98856.88
2023-02-02T19:32:23.084Z,98854.91
2023-02-02T19:34:51.659Z,98801.41
2023-02-02T19:37:25.979Z,98852.28
2023-02-02T19:40:08.315Z,98856.19
2023-02-02T19:42:35.498Z,98844.19
2023-02-02T19:45:09.186Z,98839.13
2023-02-02T19:47:35.687Z,98842.75
2023-02-02T19:50:15.726Z,98845.72
2023-02-02T19:52:42.215Z,98841.41
2023-02-02T19:55:28.366Z,98841.81
2023-02-02T19:58:02.137Z,98853.66
2023-02-02T20:00:30.148Z,98860.25
2023-02-02T20:03:07.401Z,98863.06
2023-02-02T20:05:41.399Z,98856.53
2023-02-02T20:08:13.908Z,98858.13
2023-02-02T20:10:44.457Z,98857.28
2023-02-02T20:13:21.244Z,98858.31
2023-02-02T20:15:48.909Z,98864.91
2023-02-02T20:18:23.367Z,98865.47
2023-02-02T20:20:54.426Z,98870.56
2023-02-02T20:23:42.947Z,98865.38
2023-02-02T20:26:33.410Z,98868.06
2023-02-02T20:29:01.091Z,98868.47
2023-02-02T20:31:35.698Z,98875.31
2023-02-02T20:34:02.421Z,98873.44
2023-02-02T20:36:38.716Z,98864.25
2023-02-02T20:39:34.450Z,98867.47
2023-02-02T20:42:01.060Z,98874.03
2023-02-02T20:44:28.203Z,98871.28
2023-02-02T20:46:54.984Z,98873.59
2023-02-02T20:49:25.346Z,98862.81
2023-02-02T20:51:53.575Z,98863.13
2023-02-02T20:54:20.903Z,98844.72
2023-02-02T20:56:47.544Z,98844.38
2023-02-02T20:59:14.523Z,98857.38
2023-02-02T21:01:41.188Z,98849.28
2023-02-02T21:04:07.778Z,98852.25
2023-02-02T21:06:35.151Z,98824.59
2023-02-02T21:09:01.686Z,98849.13
2023-02-02T21:11:28.190Z,98854.66
2023-02-02T21:13:55.212Z,98848.78
2023-02-02T21:16:22.290Z,98856.69
2023-02-02T21:18:48.848Z,98854.41
2023-02-02T21:21:16.883Z,98854.84
2023-02-02T21:23:47.386Z,98862.13
2023-02-02T21:26:14.693Z,98866.03
2023-02-02T21:28:41.231Z,98867.53
2023-02-02T21:31:08.728Z,98864.84
2023-02-02T21:33:35.312Z,98866.69
2023-02-02T21:36:08.823Z,98874.78
2023-02-02T21:38:35.299Z,98856.19
2023-02-02T21:41:01.872Z,98866.88
2023-02-02T21:43:28.431Z,98880.38
2023-02-02T21:45:57.130Z,98880.56
2023-02-02T21:48:27.848Z,98869.41
2023-02-02T21:50:54.394Z,98879.13
2023-02-02T21:53:22.695Z,98872.25
2023-02-02T21:55:54.266Z,98874.13
2023-02-02T21:58:34.058Z,98865.50
2023-02-02T22:01:18.491Z,98860.44
2023-02-02T22:03:46.759Z,98869.06
2023-02-02T22:06:24.548Z,98870.41
2023-02-02T22:08:51.194Z,98866.88
2023-02-02T22:11:47.850Z,98883.44
2023-02-02T22:14:17.466Z,98882.59
2023-02-02T22:17:02.430Z,98874.63
2023-02-02T22:19:33.972Z,98865.16
2023-02-02T22:22:09.484Z,98868.22
2023-02-02T22:24:36.276Z,98866.53
2023-02-02T22:27:02.827Z,98861.34
2023-02-02T22:29:29.722Z,98861.34
2023-02-02T22:31:56.246Z,98840.22
2023-02-02T22:34:22.843Z,98858.41
2023-02-02T22:36:49.373Z,98833.97
2023-02-02T22:39:16.088Z,98855.19
2023-02-02T22:41:42.683Z,98851.31
2023-02-02T22:44:09.286Z,98854.66
2023-02-02T22:46:35.798Z,98850.22
2023-02-02T22:49:02.299Z,98856.38
2023-02-02T22:51:28.845Z,98849.44
2023-02-02T22:53:55.349Z,98848.78
2023-02-02T22:56:21.857Z,98843.69
2023-02-02T22:58:48.791Z,98852.34
2023-02-02T23:01:15.452Z,98830.84
2023-02-02T23:03:42.043Z,98848.78
2023-02-02T23:06:09.074Z,98844.22
2023-02-02T23:08:35.589Z,98843.03
2023-02-02T23:11:02.078Z,98846.84
2023-02-02T23:13:28.597Z,98848.06
2023-02-02T23:15:56.690Z,98853.50
2023-02-02T23:18:23.239Z,98848.44
2023-02-02T23:20:50.505Z,98860.28
2023-02-02T23:23:16.968Z,98854.09
2023-02-02T23:25:43.430Z,98860.44
2023-02-02T23:28:10.524Z,98862.13
2023-02-02T23:30:37.888Z,98855.09
2023-02-02T23:33:04.388Z,98860.09
2023-02-02T23:35:30.905Z,98851.13
2023-02-02T23:37:57.394Z,98859.59
2023-02-02T23:40:24.112Z,98861.25
2023-02-02T23:42:51.063Z,98862.28
2023-02-02T23:45:17.621Z,98863.94
2023-02-02T23:47:44.185Z,98859.84
2023-02-02T23:50:11.310Z,98859.63
2023-02-02T23:52:37.850Z,98858.88
2023-02-02T23:55:04.761Z,98854.50
2023-02-02T23:57:33.690Z,98853.28
